Terminal Aerodrome Forecast
Issued by NWS

Home | Current Version | Previous Version | Text Only | Print | Product List | Glossary On
Versions: 1 2 3 4 5 6 7 8 9 10 11 12 13 14 15 16 17 18 19 20 21 22 23 24 25 26
202
FTUS41 KBUF 241502 AAA
TAFJHW
TAF AMD
KJHW 241502Z 2415/2512 26008KT P6SM BKN020
     FM241800 27012G18KT P6SM BKN025
     FM242300 28010KT P6SM BKN012
     FM250300 29007KT P6SM BKN003
     FM250900 32005KT P6SM BKN003
      AMD LTD TO CLD VIS AND WIND=

USA.gov is the U.S. government's official web portal to all federal, state and local government web resources and services.